Time;durP1;ratioP1;P1;durP2;ratioP2;P2;SDS_P1;SDS_P2;PMS_P1;PMS_P2;Temp;Humidity;BMP_temperature;BMP_pressure;BME280_temperature;BME280_humidity;BME280_pressure;Samples;Min_cycle;Max_cycle;Signal;HPM_P1;HPM_P2
2022/01/10 00:00:37;;;;;;;36.65;14.93;;;1.70;99.90;;;;;;4961477;28;20493;-57
2022/01/10 00:03:03;;;;;;;35.95;14.98;;;1.70;99.90;;;;;;4958839;28;20094;-59
2022/01/10 00:05:29;;;;;;;41.40;15.15;;;1.60;99.90;;;;;;4959696;28;20050;-59
2022/01/10 00:07:54;;;;;;;40.75;16.08;;;1.60;99.90;;;;;;4953157;28;20042;-59
2022/01/10 00:10:20;;;;;;;33.47;14.68;;;1.60;99.90;;;;;;4960833;28;20058;-58
2022/01/10 00:12:46;;;;;;;43.72;15.75;;;1.50;99.90;;;;;;4960796;28;20042;-58
2022/01/10 00:15:15;;;;;;;39.05;15.57;;;1.50;99.90;;;;;;4972967;28;20043;-58
2022/01/10 00:17:44;;;;;;;41.83;16.75;;;1.50;99.90;;;;;;4966684;28;20035;-58
2022/01/10 00:20:13;;;;;;;36.97;16.52;;;1.40;99.90;;;;;;4973243;28;20490;-58
2022/01/10 00:22:40;;;;;;;37.15;16.17;;;1.40;99.90;;;;;;4972913;28;20162;-57
2022/01/10 00:25:07;;;;;;;40.55;16.33;;;1.40;99.90;;;;;;4972911;28;20055;-58
2022/01/10 00:27:33;;;;;;;37.33;17.88;;;1.40;99.90;;;;;;4968702;28;20086;-58
2022/01/10 00:29:58;;;;;;;42.05;17.98;;;1.40;99.90;;;;;;4966291;28;20077;-58
2022/01/10 00:32:24;;;;;;;50.55;16.77;;;1.30;99.90;;;;;;4959283;28;20461;-59
2022/01/10 00:34:51;;;;;;;46.28;18.27;;;1.40;99.90;;;;;;4942668;28;20053;-58
2022/01/10 00:37:17;;;;;;;44.15;16.80;;;1.30;99.90;;;;;;4972621;28;20043;-58
2022/01/10 00:39:42;;;;;;;33.03;17.60;;;1.30;99.90;;;;;;4963759;28;20030;-58
2022/01/10 00:42:08;;;;;;;41.38;17.25;;;1.30;99.90;;;;;;4958456;28;20443;-57
2022/01/10 00:44:39;;;;;;;46.38;17.90;;;1.30;99.90;;;;;;4958706;28;20103;-57
2022/01/10 00:47:05;;;;;;;47.40;18.35;;;1.20;99.90;;;;;;4959367;28;20050;-57
2022/01/10 00:49:31;;;;;;;44.03;17.42;;;1.20;99.90;;;;;;4966120;28;20112;-57
2022/01/10 00:51:57;;;;;;;40.33;18.10;;;1.20;99.90;;;;;;4962112;28;20030;-58
2022/01/10 00:54:23;;;;;;;44.35;18.20;;;1.20;99.90;;;;;;4952437;28;20046;-59
2022/01/10 00:56:48;;;;;;;40.17;18.30;;;1.20;99.90;;;;;;4970990;28;20545;-58
2022/01/10 00:59:14;;;;;;;42.33;17.30;;;1.10;99.90;;;;;;4960539;28;20395;-59
2022/01/10 01:01:40;;;;;;;40.17;16.67;;;1.10;99.90;;;;;;4970334;28;20075;-57
2022/01/10 01:04:06;;;;;;;45.95;18.75;;;1.10;99.90;;;;;;4957182;28;20146;-57
2022/01/10 01:06:32;;;;;;;43.05;18.88;;;1.00;99.90;;;;;;4970584;28;20121;-56
2022/01/10 01:09:02;;;;;;;39.63;19.10;;;1.10;99.90;;;;;;4964399;28;20066;-57
2022/01/10 01:14:00;;;;;;;48.67;18.13;;;1.00;99.90;;;;;;4961294;28;20487;-57
2022/01/10 01:19:53;;;;;;;40.25;18.33;;;0.90;99.90;;;;;;4972362;28;20038;-55
2022/01/10 01:24:45;;;;;;;39.63;17.88;;;0.80;99.90;;;;;;4942027;29;20142;-57
2022/01/10 01:27:11;;;;;;;49.22;19.48;;;1.10;99.90;;;;;;4939244;29;20075;-58
2022/01/10 01:29:37;;;;;;;36.95;18.45;;;0.90;99.90;;;;;;4936502;29;20032;-58
2022/01/10 01:32:03;;;;;;;45.45;19.27;;;0.80;99.90;;;;;;4940252;28;20040;-57
2022/01/10 01:34:28;;;;;;;51.30;19.05;;;0.80;99.90;;;;;;4941730;29;20055;-58
2022/01/10 01:36:56;;;;;;;42.78;18.80;;;0.80;99.90;;;;;;4937809;29;20062;-57
2022/01/10 01:39:25;;;;;;;48.83;19.65;;;0.80;99.90;;;;;;4938881;29;20048;-58
2022/01/10 01:41:56;;;;;;;47.10;18.65;;;0.80;99.90;;;;;;4940468;29;20047;-57
2022/01/10 01:44:22;;;;;;;45.92;18.80;;;0.80;99.90;;;;;;4945788;29;20046;-58
2022/01/10 01:46:48;;;;;;;48.35;20.33;;;0.80;99.90;;;;;;4944462;29;20047;-58
2022/01/10 01:49:14;;;;;;;46.67;19.75;;;0.70;99.90;;;;;;4923663;29;20046;-58
2022/01/10 01:51:40;;;;;;;47.30;20.08;;;0.80;99.90;;;;;;4934149;29;20405;-56
2022/01/10 01:54:07;;;;;;;51.13;22.15;;;0.80;99.90;;;;;;4945925;29;20035;-59
2022/01/10 01:56:32;;;;;;;54.83;21.90;;;0.70;99.90;;;;;;4944505;29;20055;-58
2022/01/10 01:58:58;;;;;;;53.13;21.90;;;0.80;99.90;;;;;;4937540;29;20484;-59
2022/01/10 02:01:25;;;;;;;51.55;21.45;;;0.70;99.90;;;;;;4949824;29;20044;-58
2022/01/10 02:03:52;;;;;;;46.20;21.25;;;0.70;99.90;;;;;;4946137;29;20038;-58
2022/01/10 02:06:17;;;;;;;48.22;20.17;;;0.80;99.90;;;;;;4937937;29;20039;-58
2022/01/10 02:08:44;;;;;;;43.88;21.23;;;0.70;99.90;;;;;;4938540;29;20046;-58
2022/01/10 02:11:12;;;;;;;48.53;23.23;;;0.70;99.90;;;;;;4945895;29;20049;-59
2022/01/10 02:13:39;;;;;;;53.40;22.33;;;0.70;99.90;;;;;;4952014;29;20045;-58
2022/01/10 02:16:07;;;;;;;54.70;22.90;;;0.70;99.90;;;;;;4940276;29;20054;-58
2022/01/10 02:18:34;;;;;;;61.78;23.77;;;0.70;99.90;;;;;;4943136;29;20036;-57
2022/01/10 02:21:03;;;;;;;58.42;24.65;;;0.70;99.90;;;;;;4941549;29;20032;-57
2022/01/10 02:23:30;;;;;;;60.75;25.05;;;0.70;99.90;;;;;;4948006;28;20049;-58
2022/01/10 02:25:56;;;;;;;53.08;23.67;;;0.70;99.90;;;;;;4961495;28;20043;-59
2022/01/10 02:28:22;;;;;;;58.55;25.08;;;0.70;99.90;;;;;;4970666;28;20046;-58
2022/01/10 02:30:55;;;;;;;57.30;25.00;;;0.70;99.90;;;;;;4966061;28;20445;-59
2022/01/10 02:33:21;;;;;;;53.38;25.42;;;0.70;99.90;;;;;;4941054;28;20091;-58
2022/01/10 02:36:18;;;;;;;56.45;25.38;;;0.70;99.90;;;;;;4962895;28;20039;-58
2022/01/10 02:38:33;;;;;;;60.28;25.90;;;0.70;99.90;;;;;;4973177;28;20043;-59
2022/01/10 02:41:00;;;;;;;62.40;24.95;;;0.70;99.90;;;;;;4973786;28;20042;-58
2022/01/10 02:43:25;;;;;;;57.88;24.25;;;0.70;99.90;;;;;;4962717;28;20049;-58
2022/01/10 02:45:51;;;;;;;60.67;26.05;;;0.70;99.90;;;;;;4955897;28;20054;-57
2022/01/10 02:48:17;;;;;;;65.47;25.90;;;0.70;99.90;;;;;;4950505;28;20050;-58
2022/01/10 02:50:43;;;;;;;65.93;24.88;;;0.70;99.90;;;;;;4966494;28;20089;-57
2022/01/10 02:53:09;;;;;;;67.90;25.55;;;0.70;99.90;;;;;;4969668;28;20065;-58
2022/01/10 02:55:34;;;;;;;59.85;26.30;;;0.70;99.90;;;;;;4969374;28;20081;-57
2022/01/10 02:58:00;;;;;;;61.70;25.55;;;0.70;99.90;;;;;;4972950;28;20108;-58
2022/01/10 03:00:27;;;;;;;54.25;25.90;;;0.70;99.90;;;;;;4948743;28;20517;-59
2022/01/10 03:02:54;;;;;;;54.05;25.20;;;0.60;99.90;;;;;;4958373;28;20039;-57
2022/01/10 03:05:22;;;;;;;62.42;26.55;;;0.60;99.90;;;;;;4962380;28;20055;-57
2022/01/10 03:07:50;;;;;;;69.57;27.38;;;0.60;99.90;;;;;;4971122;28;20043;-58
2022/01/10 03:10:16;;;;;;;56.83;25.83;;;0.60;99.90;;;;;;4955212;28;20399;-58
2022/01/10 03:12:42;;;;;;;59.38;25.08;;;0.60;99.90;;;;;;4957505;28;20043;-58
2022/01/10 03:15:10;;;;;;;55.70;24.92;;;0.60;99.90;;;;;;4964631;28;20053;-57
2022/01/10 03:17:36;;;;;;;62.92;25.88;;;0.60;99.90;;;;;;4965795;28;20035;-58
2022/01/10 03:20:04;;;;;;;61.60;26.42;;;0.60;99.90;;;;;;4974534;28;20038;-58
2022/01/10 03:22:31;;;;;;;57.20;25.42;;;0.60;99.90;;;;;;4956984;28;20042;-58
2022/01/10 03:24:58;;;;;;;61.25;25.05;;;0.60;99.90;;;;;;4963254;28;20039;-59
2022/01/10 03:27:24;;;;;;;66.95;26.10;;;0.60;99.90;;;;;;4971675;28;20109;-59
2022/01/10 03:29:50;;;;;;;60.83;26.60;;;0.60;99.90;;;;;;4957622;28;20042;-57
2022/01/10 03:32:16;;;;;;;66.32;25.80;;;0.60;99.90;;;;;;4964613;28;20047;-57
2022/01/10 03:34:42;;;;;;;59.95;26.02;;;0.60;99.90;;;;;;4961299;28;20045;-59
2022/01/10 03:37:08;;;;;;;63.58;26.23;;;0.50;99.90;;;;;;4966561;28;20050;-58
2022/01/10 03:39:35;;;;;;;56.83;25.17;;;0.50;99.90;;;;;;4965728;28;20039;-58
2022/01/10 03:42:01;;;;;;;58.17;25.55;;;0.50;99.90;;;;;;4969195;28;20047;-58
2022/01/10 03:44:27;;;;;;;57.85;25.30;;;0.50;99.90;;;;;;4969568;28;20562;-58
2022/01/10 03:46:53;;;;;;;57.78;26.27;;;0.50;99.90;;;;;;4962565;28;20114;-59
2022/01/10 03:49:18;;;;;;;61.97;24.80;;;0.50;99.90;;;;;;4967165;28;20047;-58
2022/01/10 03:51:44;;;;;;;62.92;25.58;;;0.50;99.90;;;;;;4965378;28;20379;-57
2022/01/10 03:54:10;;;;;;;60.15;23.77;;;0.50;99.90;;;;;;4955525;28;20074;-58
2022/01/10 03:56:36;;;;;;;59.97;25.00;;;0.40;99.90;;;;;;4957237;28;20039;-58
2022/01/10 03:59:04;;;;;;;61.78;25.42;;;0.40;99.90;;;;;;4956783;28;20034;-59
2022/01/10 04:01:31;;;;;;;52.28;23.75;;;0.40;99.90;;;;;;4954571;28;20118;-57
2022/01/10 04:03:56;;;;;;;63.88;26.38;;;0.40;99.90;;;;;;4955939;28;20047;-57
2022/01/10 04:06:22;;;;;;;58.15;26.55;;;0.40;99.90;;;;;;4959314;28;20399;-58
2022/01/10 04:08:48;;;;;;;63.22;27.75;;;0.30;99.90;;;;;;4958646;28;20486;-57
2022/01/10 04:11:14;;;;;;;62.03;27.10;;;0.30;99.90;;;;;;4964732;28;20066;-58
2022/01/10 04:13:40;;;;;;;61.10;27.77;;;0.30;99.90;;;;;;4964903;28;20126;-57
2022/01/10 04:16:06;;;;;;;72.28;27.02;;;0.30;99.90;;;;;;4964404;28;20039;-58
2022/01/10 04:18:32;;;;;;;65.68;26.88;;;0.30;99.90;;;;;;4971928;28;20090;-57
2022/01/10 04:20:59;;;;;;;75.20;27.30;;;0.30;99.90;;;;;;4961730;28;20510;-57
2022/01/10 04:23:24;;;;;;;65.40;26.58;;;0.30;99.90;;;;;;4964730;28;20059;-58
2022/01/10 04:25:51;;;;;;;61.53;26.45;;;0.30;99.90;;;;;;4953198;28;20054;-59
2022/01/10 04:28:17;;;;;;;76.07;27.42;;;0.20;99.90;;;;;;4967451;28;20050;-59
2022/01/10 04:30:42;;;;;;;68.07;28.35;;;0.20;99.90;;;;;;4963768;28;20663;-58
2022/01/10 04:33:10;;;;;;;54.28;26.25;;;0.20;99.90;;;;;;4956139;28;20066;-58
2022/01/10 04:35:36;;;;;;;69.60;28.75;;;0.20;99.90;;;;;;4966101;28;20046;-58
2022/01/10 04:38:02;;;;;;;63.70;27.85;;;0.20;99.90;;;;;;4959607;28;20027;-58
2022/01/10 04:40:28;;;;;;;69.80;28.30;;;0.20;99.90;;;;;;4969845;28;20035;-58
2022/01/10 04:42:54;;;;;;;65.40;29.17;;;0.20;99.90;;;;;;4953836;28;20031;-57
2022/01/10 04:45:20;;;;;;;68.40;29.52;;;0.10;99.90;;;;;;4957760;28;20563;-57
2022/01/10 04:47:46;;;;;;;64.97;29.00;;;0.10;99.90;;;;;;4958862;28;20122;-57
2022/01/10 04:52:48;;;;;;;75.75;30.58;;;0.10;99.90;;;;;;4971594;28;20042;-58
2022/01/10 04:55:14;;;;;;;66.03;28.77;;;0.10;99.90;;;;;;4970596;28;20074;-57
2022/01/10 04:57:40;;;;;;;74.65;30.27;;;0.10;99.90;;;;;;4965263;28;20039;-58
2022/01/10 05:00:08;;;;;;;73.75;29.85;;;0.10;99.90;;;;;;4952845;28;20035;-59
2022/01/10 05:02:34;;;;;;;62.83;28.95;;;0.10;99.90;;;;;;4956046;28;20042;-58
2022/01/10 05:05:00;;;;;;;64.18;29.45;;;0.10;99.90;;;;;;4958517;28;20038;-58
2022/01/10 05:07:26;;;;;;;60.10;26.67;;;0.10;99.90;;;;;;4958939;28;20118;-58
2022/01/10 05:09:51;;;;;;;61.28;28.80;;;0.10;99.90;;;;;;4960967;28;20066;-59
2022/01/10 05:12:17;;;;;;;65.32;28.90;;;0.00;99.90;;;;;;4957997;28;20038;-59
2022/01/10 05:14:43;;;;;;;59.40;26.95;;;0.00;99.90;;;;;;4964453;28;20057;-59
2022/01/10 05:17:10;;;;;;;70.00;30.48;;;0.00;99.90;;;;;;4972506;28;20463;-58
2022/01/10 05:19:36;;;;;;;60.72;27.70;;;0.00;99.90;;;;;;4961589;28;20051;-59
2022/01/10 05:22:03;;;;;;;65.65;28.98;;;0.00;99.90;;;;;;4956180;28;20118;-58
2022/01/10 05:24:29;;;;;;;64.97;28.27;;;0.00;99.90;;;;;;4964427;28;20055;-58
2022/01/10 05:26:55;;;;;;;65.25;28.30;;;-0.10;99.90;;;;;;4957968;28;20043;-58
2022/01/10 05:29:20;;;;;;;70.25;30.95;;;-0.10;99.90;;;;;;4964464;28;20492;-58
2022/01/10 05:31:46;;;;;;;69.13;30.33;;;-0.10;99.90;;;;;;4953451;28;20035;-57
2022/01/10 05:34:12;;;;;;;69.10;31.75;;;-0.10;99.90;;;;;;4965858;28;20081;-59
2022/01/10 05:36:37;;;;;;;73.95;33.15;;;-0.10;99.90;;;;;;4963642;28;20176;-58
2022/01/10 05:39:03;;;;;;;78.47;33.55;;;-0.10;99.90;;;;;;4963096;28;20035;-58
2022/01/10 05:41:29;;;;;;;81.40;35.22;;;-0.10;99.90;;;;;;4959631;28;20113;-58
2022/01/10 05:43:55;;;;;;;81.40;36.25;;;0.00;99.90;;;;;;4958156;28;20192;-58
2022/01/10 05:46:22;;;;;;;85.55;35.92;;;0.00;99.90;;;;;;4951300;28;20055;-59
2022/01/10 05:48:52;;;;;;;86.47;37.03;;;0.00;99.90;;;;;;4971916;28;20043;-59
2022/01/10 05:51:19;;;;;;;80.57;37.20;;;0.00;99.90;;;;;;4954237;28;20391;-58
2022/01/10 05:53:45;;;;;;;87.32;37.53;;;0.00;99.90;;;;;;4958133;28;20402;-58
2022/01/10 05:56:11;;;;;;;86.88;39.25;;;0.00;99.90;;;;;;4958134;28;20051;-58
2022/01/10 05:58:37;;;;;;;85.15;38.13;;;0.00;99.90;;;;;;4972274;28;20034;-58
2022/01/10 06:01:03;;;;;;;97.45;40.05;;;0.10;99.90;;;;;;4961009;28;20031;-58
2022/01/10 06:03:29;;;;;;;88.30;38.92;;;0.10;99.90;;;;;;4957757;28;20039;-59
2022/01/10 06:05:54;;;;;;;89.20;40.08;;;0.00;99.90;;;;;;4959148;28;20118;-58
2022/01/10 06:08:20;;;;;;;90.75;38.25;;;0.10;99.90;;;;;;4964211;28;20052;-58
2022/01/10 06:10:46;;;;;;;95.93;40.90;;;0.00;99.90;;;;;;4952998;28;20080;-58
2022/01/10 06:13:12;;;;;;;89.22;39.22;;;0.10;99.90;;;;;;4970932;28;20039;-57
2022/01/10 06:15:38;;;;;;;86.00;39.50;;;0.00;99.90;;;;;;4957791;28;20126;-57
2022/01/10 06:18:03;;;;;;;93.45;40.05;;;0.00;99.90;;;;;;4971646;28;20482;-57
2022/01/10 06:20:29;;;;;;;95.68;39.42;;;0.00;99.90;;;;;;4975657;28;20065;-58
2022/01/10 06:22:55;;;;;;;87.97;38.15;;;0.10;99.90;;;;;;4957091;28;20049;-57
2022/01/10 06:25:23;;;;;;;86.05;40.35;;;0.00;99.90;;;;;;4967708;28;20084;-57
2022/01/10 06:27:49;;;;;;;75.72;34.47;;;0.00;99.90;;;;;;4966956;28;20388;-58
2022/01/10 06:30:15;;;;;;;89.93;38.85;;;0.00;99.90;;;;;;4966441;28;20073;-57
2022/01/10 06:32:41;;;;;;;83.80;36.58;;;0.00;99.90;;;;;;4975009;28;20042;-59
2022/01/10 06:35:07;;;;;;;85.13;37.20;;;0.00;99.90;;;;;;4969931;28;20035;-58
2022/01/10 06:37:33;;;;;;;82.00;36.92;;;-0.10;99.90;;;;;;4965476;28;20038;-58
2022/01/10 06:39:59;;;;;;;74.72;35.53;;;-0.10;99.90;;;;;;4970797;28;20038;-58
2022/01/10 06:42:24;;;;;;;85.97;37.90;;;-0.10;99.90;;;;;;4973860;28;20034;-59
2022/01/10 06:44:50;;;;;;;74.75;34.28;;;-0.10;99.90;;;;;;4969638;28;20054;-59
2022/01/10 06:47:16;;;;;;;69.45;32.92;;;-0.10;99.90;;;;;;4956234;28;20039;-60
2022/01/10 06:49:41;;;;;;;91.45;37.63;;;-0.10;99.90;;;;;;4960377;28;20030;-59
2022/01/10 06:52:07;;;;;;;76.95;37.42;;;-0.10;99.90;;;;;;4956454;28;20125;-58
2022/01/10 06:54:33;;;;;;;77.95;38.00;;;-0.10;99.90;;;;;;4955526;28;20368;-58
2022/01/10 06:56:59;;;;;;;102.45;40.35;;;-0.10;99.90;;;;;;4973751;28;20089;-58
2022/01/10 06:59:25;;;;;;;90.18;40.75;;;-0.10;99.90;;;;;;4966741;28;20176;-58
2022/01/10 07:01:52;;;;;;;96.57;39.30;;;-0.10;99.90;;;;;;4963837;28;20057;-58
2022/01/10 07:04:19;;;;;;;84.47;40.78;;;0.00;99.90;;;;;;4962508;28;20428;-58
2022/01/10 07:06:45;;;;;;;90.20;39.97;;;0.00;99.90;;;;;;4968275;28;20470;-58
2022/01/10 07:09:10;;;;;;;91.82;39.72;;;0.00;99.90;;;;;;4955566;28;20440;-58
2022/01/10 07:11:36;;;;;;;87.63;40.80;;;0.00;99.90;;;;;;4960631;28;20081;-58
2022/01/10 07:14:03;;;;;;;92.30;40.42;;;0.00;99.90;;;;;;4961726;28;20134;-58
2022/01/10 07:16:29;;;;;;;88.63;39.88;;;0.00;99.90;;;;;;4961651;28;20043;-58
2022/01/10 07:18:55;;;;;;;86.43;36.30;;;0.00;99.90;;;;;;4957915;28;20026;-58
2022/01/10 07:21:20;;;;;;;68.97;35.40;;;0.00;99.90;;;;;;4972229;28;20113;-57
2022/01/10 07:23:48;;;;;;;84.57;34.97;;;-0.10;99.90;;;;;;4965968;28;20066;-57
2022/01/10 07:26:14;;;;;;;82.53;37.90;;;-0.10;99.90;;;;;;4973035;28;20160;-58
2022/01/10 07:28:40;;;;;;;86.85;38.83;;;-0.10;99.90;;;;;;4963730;28;20047;-57
2022/01/10 07:31:06;;;;;;;70.78;37.42;;;-0.10;99.90;;;;;;4966864;28;20043;-59
2022/01/10 07:33:32;;;;;;;86.63;39.75;;;-0.10;99.90;;;;;;4955052;28;20053;-59
2022/01/10 07:35:58;;;;;;;89.63;39.10;;;-0.10;99.90;;;;;;4971152;28;20046;-58
2022/01/10 07:38:23;;;;;;;90.10;40.25;;;-0.20;99.90;;;;;;4969762;28;20155;-58
2022/01/10 07:40:50;;;;;;;83.35;40.50;;;-0.20;99.90;;;;;;4965770;28;20197;-58
2022/01/10 07:43:16;;;;;;;93.53;43.08;;;-0.20;99.90;;;;;;4954664;28;20121;-58
2022/01/10 07:45:42;;;;;;;92.25;40.67;;;-0.20;99.90;;;;;;4967184;28;20166;-58
2022/01/10 07:48:09;;;;;;;95.32;43.80;;;-0.20;99.90;;;;;;4971744;28;20077;-59
2022/01/10 07:50:35;;;;;;;87.68;39.95;;;-0.10;99.90;;;;;;4955958;28;20049;-57
2022/01/10 07:53:00;;;;;;;84.38;38.75;;;-0.40;99.90;;;;;;4954572;28;20407;-56
2022/01/10 07:55:26;;;;;;;79.40;39.22;;;-0.10;99.90;;;;;;4962316;28;20043;-56
2022/01/10 07:57:52;;;;;;;78.05;38.83;;;-0.20;99.90;;;;;;4973526;28;20035;-57
2022/01/10 08:00:17;;;;;;;90.25;41.03;;;-0.20;99.90;;;;;;4958640;28;20035;-56
2022/01/10 08:02:44;;;;;;;90.30;42.22;;;-0.20;99.90;;;;;;4973737;28;20066;-57
2022/01/10 08:05:10;;;;;;;86.38;40.00;;;-0.20;99.90;;;;;;4961124;28;20055;-57
2022/01/10 08:07:37;;;;;;;69.97;36.75;;;-0.20;99.90;;;;;;4956759;28;20039;-57
2022/01/10 08:10:04;;;;;;;71.00;36.92;;;-0.20;99.90;;;;;;4959818;28;20376;-57
2022/01/10 08:12:29;;;;;;;85.10;36.38;;;-0.20;99.90;;;;;;4964572;28;20050;-57
2022/01/10 08:14:55;;;;;;;80.78;38.50;;;-0.20;99.90;;;;;;4963429;28;20390;-56
2022/01/10 08:17:20;;;;;;;70.35;36.63;;;-0.20;99.90;;;;;;4958075;28;20051;-56
2022/01/10 08:19:46;;;;;;;68.03;34.70;;;-0.20;99.90;;;;;;4957006;28;20033;-57
2022/01/10 08:22:12;;;;;;;78.13;37.88;;;-0.30;99.90;;;;;;4956380;28;20395;-58
2022/01/10 08:24:37;;;;;;;90.95;37.63;;;-0.30;99.90;;;;;;4955500;28;20134;-57
2022/01/10 08:27:03;;;;;;;84.78;38.80;;;-0.30;99.90;;;;;;4954614;28;20071;-58
2022/01/10 08:29:29;;;;;;;78.53;39.00;;;-0.30;99.90;;;;;;4956771;28;20299;-58
2022/01/10 08:31:55;;;;;;;74.13;39.65;;;-0.30;99.90;;;;;;4954127;28;20482;-58
2022/01/10 08:34:21;;;;;;;93.75;41.53;;;-0.30;99.90;;;;;;4956064;28;20050;-57
2022/01/10 08:36:47;;;;;;;81.72;41.50;;;-0.30;99.90;;;;;;4955759;28;20049;-57
2022/01/10 08:39:13;;;;;;;94.93;43.42;;;-0.30;99.90;;;;;;4958312;28;20047;-57
2022/01/10 08:41:39;;;;;;;90.18;45.05;;;-0.20;99.90;;;;;;4958146;28;20045;-58
2022/01/10 08:44:05;;;;;;;91.57;45.83;;;-0.20;99.90;;;;;;4958958;28;20427;-58
2022/01/10 08:46:32;;;;;;;97.20;46.50;;;-0.20;99.90;;;;;;4958172;28;20059;-57
2022/01/10 08:48:58;;;;;;;92.88;47.10;;;-0.10;99.90;;;;;;4955889;28;20133;-57
2022/01/10 08:51:24;;;;;;;98.90;47.35;;;-0.10;99.90;;;;;;4956755;28;20586;-58
2022/01/10 08:53:51;;;;;;;98.70;47.47;;;-0.10;99.90;;;;;;4956389;28;20042;-58
2022/01/10 08:56:17;;;;;;;98.65;48.63;;;0.00;99.90;;;;;;4956238;28;20414;-58
2022/01/10 08:58:43;;;;;;;111.18;50.53;;;0.00;99.90;;;;;;4958763;28;20035;-58
2022/01/10 09:01:08;;;;;;;108.20;51.47;;;0.10;99.90;;;;;;4955588;28;20035;-57
2022/01/10 09:03:35;;;;;;;112.35;54.20;;;0.10;99.90;;;;;;4955713;28;20118;-59
2022/01/10 09:06:01;;;;;;;117.85;54.90;;;0.10;99.90;;;;;;4957051;28;20045;-58
2022/01/10 09:08:32;;;;;;;120.22;56.47;;;0.20;99.90;;;;;;4958419;28;20528;-58
2022/01/10 09:10:58;;;;;;;127.25;57.00;;;0.20;99.90;;;;;;4958415;28;20125;-57
2022/01/10 09:13:24;;;;;;;123.50;57.88;;;0.30;99.90;;;;;;4956872;28;20050;-56
2022/01/10 09:15:50;;;;;;;135.65;60.20;;;0.30;99.90;;;;;;4957063;28;20060;-57
2022/01/10 09:18:16;;;;;;;132.50;61.20;;;0.40;99.90;;;;;;4938445;28;20038;-57
2022/01/10 09:20:43;;;;;;;130.77;58.38;;;0.40;99.90;;;;;;4960957;28;20559;-59
2022/01/10 09:23:09;;;;;;;125.90;59.42;;;0.40;99.90;;;;;;4961916;28;20136;-58
2022/01/10 09:25:35;;;;;;;131.88;59.35;;;0.50;99.90;;;;;;4950408;29;20806;-58
2022/01/10 09:28:01;;;;;;;128.68;58.28;;;0.50;99.90;;;;;;4953036;29;20062;-58
2022/01/10 09:30:26;;;;;;;123.93;56.63;;;0.60;99.90;;;;;;4953091;29;20126;-58
2022/01/10 09:32:53;;;;;;;136.10;58.97;;;0.60;99.90;;;;;;4953205;29;20043;-58
2022/01/10 09:35:20;;;;;;;135.88;59.20;;;0.70;99.90;;;;;;4953085;28;20373;-58
2022/01/10 09:37:46;;;;;;;126.60;59.42;;;0.70;99.90;;;;;;4957402;29;20333;-56
2022/01/10 09:40:12;;;;;;;137.05;60.75;;;0.70;99.90;;;;;;4957370;29;20027;-58
2022/01/10 09:42:38;;;;;;;143.50;64.88;;;0.80;99.90;;;;;;4957148;29;20067;-59
2022/01/10 09:45:06;;;;;;;119.85;59.03;;;0.80;99.90;;;;;;4957066;29;20043;-58
2022/01/10 09:47:31;;;;;;;135.40;61.13;;;0.90;99.90;;;;;;4957408;29;20488;-57
2022/01/10 09:49:57;;;;;;;130.05;60.88;;;1.00;99.90;;;;;;4956973;29;20031;-58
2022/01/10 09:52:24;;;;;;;121.25;58.83;;;1.00;99.90;;;;;;4957168;29;20036;-58
2022/01/10 09:54:52;;;;;;;117.10;59.90;;;1.10;99.90;;;;;;4956486;29;20118;-58
2022/01/10 09:57:17;;;;;;;109.57;56.88;;;1.20;99.90;;;;;;4956387;29;20118;-57
2022/01/10 09:59:43;;;;;;;120.93;58.42;;;1.20;99.90;;;;;;4956984;29;20123;-58
2022/01/10 10:02:10;;;;;;;114.72;57.65;;;1.30;99.90;;;;;;4956979;29;20050;-57
2022/01/10 10:04:37;;;;;;;124.85;58.47;;;1.30;99.90;;;;;;4956281;29;20126;-57
2022/01/10 10:07:05;;;;;;;120.18;57.50;;;1.40;99.90;;;;;;4956881;29;20050;-57
2022/01/10 10:09:31;;;;;;;117.45;60.03;;;1.40;99.90;;;;;;4956686;29;20036;-56
2022/01/10 10:11:57;;;;;;;120.75;63.15;;;1.50;99.90;;;;;;4956712;29;20061;-57
2022/01/10 10:14:23;;;;;;;133.05;65.00;;;1.50;99.90;;;;;;4956819;29;20039;-57
2022/01/10 10:16:52;;;;;;;137.00;67.20;;;1.60;99.90;;;;;;4956867;29;20226;-57
2022/01/10 10:19:24;;;;;;;127.90;65.93;;;1.80;99.90;;;;;;4956851;29;20046;-58
2022/01/10 10:21:51;;;;;;;123.60;63.88;;;1.90;99.90;;;;;;4955602;29;20073;-59
2022/01/10 10:24:17;;;;;;;111.45;60.30;;;2.20;99.90;;;;;;4956104;29;20079;-59
2022/01/10 10:26:44;;;;;;;95.75;52.88;;;2.40;99.90;;;;;;4955953;29;20098;-59
2022/01/10 10:29:13;;;;;;;59.45;38.63;;;2.70;99.90;;;;;;4956539;29;20172;-58
2022/01/10 10:31:49;;;;;;;48.45;29.38;;;3.00;99.90;;;;;;4956423;29;20043;-57
2022/01/10 10:34:27;;;;;;;43.83;25.52;;;3.30;99.90;;;;;;4922608;29;20107;-58
2022/01/10 10:37:06;;;;;;;41.65;24.23;;;3.40;99.90;;;;;;4955627;29;20055;-57
2022/01/10 10:39:34;;;;;;;35.50;22.35;;;3.70;99.90;;;;;;4956567;29;20041;-57
2022/01/10 10:42:02;;;;;;;33.90;20.85;;;3.90;99.90;;;;;;4956298;29;20039;-58
2022/01/10 10:44:29;;;;;;;35.45;21.25;;;4.00;99.90;;;;;;4956162;29;20045;-58
2022/01/10 10:46:56;;;;;;;35.22;21.00;;;4.10;99.90;;;;;;4955147;28;20050;-57
2022/01/10 10:49:30;;;;;;;32.80;21.08;;;4.30;99.90;;;;;;4955910;29;20139;-58
2022/01/10 10:51:56;;;;;;;36.22;20.50;;;4.40;99.90;;;;;;4955920;29;20117;-58
2022/01/10 10:54:23;;;;;;;33.60;20.67;;;4.60;99.90;;;;;;4937945;29;20179;-59
2022/01/10 10:56:49;;;;;;;33.72;19.40;;;4.70;99.90;;;;;;4953390;29;20078;-59
2022/01/10 10:59:15;;;;;;;32.17;20.00;;;4.90;99.90;;;;;;4953721;29;20071;-59
2022/01/10 11:01:42;;;;;;;30.65;19.83;;;4.90;99.90;;;;;;4950264;29;20047;-58
2022/01/10 11:04:10;;;;;;;38.45;20.45;;;5.10;99.90;;;;;;4952862;29;20035;-59
2022/01/10 11:06:37;;;;;;;35.78;20.42;;;5.10;99.90;;;;;;4953916;29;20039;-58
2022/01/10 11:09:12;;;;;;;30.80;20.17;;;5.10;99.90;;;;;;4953257;29;20051;-58
2022/01/10 11:11:38;;;;;;;33.65;21.40;;;5.00;99.90;;;;;;4953964;29;20416;-57
2022/01/10 11:14:05;;;;;;;38.20;22.02;;;4.90;99.90;;;;;;4954109;29;20042;-58
2022/01/10 11:16:31;;;;;;;37.72;22.30;;;4.90;99.90;;;;;;4954019;29;20053;-58
2022/01/10 11:18:57;;;;;;;40.67;23.13;;;4.80;99.90;;;;;;4952687;29;20039;-57
2022/01/10 11:21:23;;;;;;;37.28;23.65;;;4.80;99.90;;;;;;4950862;29;20118;-58
2022/01/10 11:23:50;;;;;;;35.35;22.75;;;4.90;99.90;;;;;;4957525;28;20051;-58
2022/01/10 11:26:17;;;;;;;32.42;22.10;;;4.90;99.90;;;;;;4963723;28;20125;-58
2022/01/10 11:28:52;;;;;;;34.30;22.63;;;4.90;99.90;;;;;;4961364;28;20043;-57
2022/01/10 11:31:26;;;;;;;33.83;22.70;;;5.00;99.90;;;;;;4965095;28;20070;-58
2022/01/10 11:33:54;;;;;;;36.47;21.85;;;5.00;99.90;;;;;;4963175;28;20035;-58
2022/01/10 11:36:23;;;;;;;34.60;22.45;;;5.10;99.90;;;;;;4961920;28;20145;-58
2022/01/10 11:38:54;;;;;;;32.58;21.45;;;5.30;99.90;;;;;;4963157;28;20167;-58
2022/01/10 11:41:25;;;;;;;33.45;20.88;;;5.40;99.90;;;;;;4943816;28;20059;-59
2022/01/10 11:44:07;;;;;;;38.28;20.75;;;5.60;99.90;;;;;;4963323;28;20046;-58
2022/01/10 11:46:33;;;;;;;36.70;22.05;;;5.70;99.90;;;;;;4961134;28;20085;-58
2022/01/10 11:49:00;;;;;;;33.50;20.63;;;5.80;99.90;;;;;;4958781;28;20038;-58
2022/01/10 11:51:35;;;;;;;32.88;22.13;;;6.10;99.90;;;;;;4956889;28;20114;-58
2022/01/10 11:54:17;;;;;;;34.63;19.23;;;6.10;99.90;;;;;;4958818;28;20039;-58
2022/01/10 11:56:47;;;;;;;28.05;18.63;;;6.20;99.90;;;;;;4959116;28;20043;-58
2022/01/10 11:59:25;;;;;;;30.55;20.15;;;6.30;99.90;;;;;;4959858;28;20042;-57
2022/01/10 12:02:03;;;;;;;29.73;18.75;;;6.30;99.90;;;;;;4963608;28;20066;-59
2022/01/10 12:04:37;;;;;;;26.15;17.75;;;6.40;99.90;;;;;;4957016;28;20041;-59
2022/01/10 12:07:05;;;;;;;31.45;18.77;;;6.40;99.90;;;;;;4960865;28;20069;-58
2022/01/10 12:09:31;;;;;;;32.97;20.20;;;6.50;99.90;;;;;;4957880;28;20437;-58
2022/01/10 12:11:59;;;;;;;31.23;18.25;;;6.50;99.90;;;;;;4964622;28;20113;-58
2022/01/10 12:14:25;;;;;;;30.05;19.10;;;6.50;99.90;;;;;;4958201;28;20042;-59
2022/01/10 12:16:52;;;;;;;35.15;19.05;;;6.60;99.90;;;;;;4963783;28;20062;-59
2022/01/10 12:19:18;;;;;;;28.73;17.20;;;6.60;99.90;;;;;;4971454;28;20081;-58
2022/01/10 12:21:44;;;;;;;34.05;18.85;;;6.60;99.90;;;;;;4963693;28;20063;-58
2022/01/10 12:24:12;;;;;;;32.97;19.77;;;6.70;99.90;;;;;;4968001;28;20094;-59
2022/01/10 12:26:41;;;;;;;29.98;19.90;;;6.60;99.90;;;;;;4964790;28;20058;-58
2022/01/10 12:29:09;;;;;;;29.85;19.70;;;6.60;99.90;;;;;;4966771;28;20050;-59
2022/01/10 12:31:37;;;;;;;32.25;20.33;;;6.60;99.90;;;;;;4956849;28;20110;-59
2022/01/10 12:34:04;;;;;;;33.38;19.88;;;6.70;99.90;;;;;;4953788;28;20049;-58
2022/01/10 12:36:32;;;;;;;29.85;19.35;;;6.70;99.90;;;;;;4953711;28;20376;-57
2022/01/10 12:39:09;;;;;;;29.20;18.20;;;6.80;99.90;;;;;;4959312;28;20070;-58
2022/01/10 12:41:35;;;;;;;31.70;20.25;;;6.80;99.90;;;;;;4955592;28;20045;-59